createdAt,value
2017-03-16T00:00:19.540Z,5.45
2017-03-16T00:01:28.422Z,5.49
2017-03-16T00:02:37.306Z,5.53
2017-03-16T00:03:46.192Z,5.54
2017-03-16T00:04:55.077Z,5.43
2017-03-16T00:06:04.433Z,5.56
2017-03-16T00:07:13.643Z,5.51
2017-03-16T00:08:22.524Z,5.57
2017-03-16T00:09:31.415Z,5.54
2017-03-16T00:10:40.653Z,5.57
2017-03-16T00:11:50.060Z,5.49
2017-03-16T00:12:59.590Z,5.45
2017-03-16T00:14:08.473Z,5.49
2017-03-16T00:15:17.680Z,5.46
2017-03-16T00:16:26.568Z,5.46
2017-03-16T00:17:35.872Z,5.39
2017-03-16T00:18:44.756Z,5.42
2017-03-16T00:19:53.639Z,5.39
2017-03-16T00:21:02.525Z,5.38
2017-03-16T00:22:11.787Z,5.35
2017-03-16T00:23:20.717Z,5.35
2017-03-16T00:24:29.600Z,5.24
2017-03-16T00:25:38.481Z,5.22
2017-03-16T00:26:47.369Z,5.28
2017-03-16T00:27:56.253Z,5.27
2017-03-16T00:29:05.509Z,5.2
2017-03-16T00:30:14.391Z,5.1
2017-03-16T00:31:23.600Z,5.12
2017-03-16T00:32:32.485Z,5.1
2017-03-16T00:33:41.369Z,5.09
2017-03-16T00:34:50.255Z,5.07
2017-03-16T00:35:59.138Z,5.07
2017-03-16T00:37:08.346Z,5.03
2017-03-16T00:38:17.228Z,5.06
2017-03-16T00:39:26.114Z,5.04
2017-03-16T00:40:35.575Z,5.02
2017-03-16T00:41:44.785Z,5.09
2017-03-16T00:42:53.997Z,5.04
2017-03-16T00:44:03.212Z,5.03
2017-03-16T00:45:12.096Z,5.06
2017-03-16T00:46:21.179Z,4.94
2017-03-16T00:47:30.058Z,4.97
2017-03-16T00:48:38.942Z,5.04
2017-03-16T00:49:47.827Z,4.97
2017-03-16T00:50:57.033Z,4.96
2017-03-16T00:52:05.968Z,4.94
2017-03-16T00:53:15.172Z,5.02
2017-03-16T00:54:24.053Z,5
2017-03-16T00:55:32.934Z,4.97
2017-03-16T00:56:41.820Z,4.96
2017-03-16T00:57:50.856Z,4.92
2017-03-16T00:58:59.739Z,5.06
2017-03-16T01:00:08.628Z,5.02
2017-03-16T01:01:17.511Z,5.06
2017-03-16T01:02:26.722Z,4.92
2017-03-16T01:03:35.754Z,4.97
2017-03-16T01:04:44.637Z,5
2017-03-16T01:05:53.521Z,5.03
2017-03-16T01:07:02.410Z,4.99
2017-03-16T01:08:11.292Z,5.04
2017-03-16T01:09:20.175Z,5.03
2017-03-16T01:10:29.387Z,4.99
2017-03-16T01:11:38.598Z,5.03
2017-03-16T01:12:47.481Z,5
2017-03-16T01:13:56.687Z,4.94
2017-03-16T01:15:05.629Z,5
2017-03-16T01:16:14.511Z,4.91
2017-03-16T01:17:23.718Z,4.96
2017-03-16T01:18:32.602Z,4.97
2017-03-16T01:19:41.808Z,4.94
2017-03-16T01:20:51.669Z,4.94
2017-03-16T01:22:00.554Z,4.8
2017-03-16T01:23:09.762Z,4.86
2017-03-16T01:24:19.627Z,4.8
2017-03-16T01:25:28.837Z,4.78
2017-03-16T01:26:38.194Z,4.8
2017-03-16T01:27:47.403Z,4.8
2017-03-16T01:28:56.948Z,4.8
2017-03-16T01:30:06.155Z,4.85
2017-03-16T01:31:15.038Z,4.8
2017-03-16T01:32:24.071Z,4.77
2017-03-16T01:33:32.956Z,4.77
2017-03-16T01:34:42.490Z,4.77
2017-03-16T01:35:51.373Z,4.84
2017-03-16T01:37:00.584Z,4.78
2017-03-16T01:38:09.618Z,4.82
2017-03-16T01:39:18.823Z,4.73
2017-03-16T01:40:27.712Z,4.72
2017-03-16T01:41:36.595Z,4.7
2017-03-16T01:42:45.481Z,4.77
2017-03-16T01:43:54.413Z,4.72
2017-03-16T01:45:03.620Z,4.8
2017-03-16T01:46:12.830Z,4.69
2017-03-16T01:47:22.046Z,4.73
2017-03-16T01:48:30.929Z,4.73
2017-03-16T01:49:40.563Z,4.78
2017-03-16T01:50:49.448Z,4.66
2017-03-16T01:51:58.652Z,4.73
2017-03-16T01:53:07.858Z,4.75
2017-03-16T01:54:17.064Z,4.69
2017-03-16T01:55:26.521Z,4.67
2017-03-16T01:56:35.411Z,4.69
2017-03-16T01:57:44.298Z,4.7
2017-03-16T01:58:53.843Z,4.67
2017-03-16T02:00:03.710Z,4.65
2017-03-16T02:01:12.969Z,4.63
2017-03-16T02:02:21.850Z,4.62
2017-03-16T02:03:31.386Z,4.7
2017-03-16T02:04:40.269Z,4.7
2017-03-16T02:05:49.477Z,4.63
2017-03-16T02:06:58.515Z,4.7
2017-03-16T02:08:07.722Z,4.63
2017-03-16T02:09:17.261Z,4.66
2017-03-16T02:10:26.464Z,4.72
2017-03-16T02:11:35.675Z,4.7
2017-03-16T02:12:44.709Z,4.62
2017-03-16T02:13:54.240Z,4.67
2017-03-16T02:15:04.114Z,4.58
2017-03-16T02:16:13.010Z,4.63
2017-03-16T02:17:22.216Z,4.6
2017-03-16T02:18:31.674Z,4.52
2017-03-16T02:19:41.530Z,4.54
2017-03-16T02:20:50.739Z,4.63
2017-03-16T02:21:59.950Z,4.62
2017-03-16T02:23:09.165Z,4.52
2017-03-16T02:24:18.676Z,4.6
2017-03-16T02:25:27.888Z,4.58
2017-03-16T02:26:37.423Z,4.54
2017-03-16T02:27:46.627Z,4.51
2017-03-16T02:28:55.837Z,4.47
2017-03-16T02:30:05.096Z,4.51
2017-03-16T02:31:13.981Z,4.52
2017-03-16T02:32:22.862Z,4.59
2017-03-16T02:33:32.397Z,4.54
2017-03-16T02:34:41.285Z,4.52
2017-03-16T02:35:50.642Z,4.55
2017-03-16T02:36:59.525Z,4.51
2017-03-16T02:38:08.737Z,4.52
2017-03-16T02:39:18.270Z,4.58
2017-03-16T02:40:27.153Z,4.42
2017-03-16T02:41:36.510Z,4.44
2017-03-16T02:42:45.395Z,4.42
2017-03-16T02:43:54.604Z,4.44
2017-03-16T02:45:03.811Z,4.41
2017-03-16T02:46:12.693Z,4.41
2017-03-16T02:47:21.726Z,4.37
2017-03-16T02:48:30.617Z,4.41
2017-03-16T02:49:39.822Z,4.32
2017-03-16T02:50:48.710Z,4.3
2017-03-16T02:51:57.594Z,4.34
2017-03-16T02:53:07.285Z,4.36
2017-03-16T02:54:16.165Z,4.27
2017-03-16T02:55:25.384Z,4.37
2017-03-16T02:56:34.593Z,4.42
2017-03-16T02:57:43.805Z,4.32
2017-03-16T02:58:52.838Z,4.37
2017-03-16T03:00:02.047Z,4.33
2017-03-16T03:01:10.929Z,4.42
2017-03-16T03:02:20.137Z,4.33
2017-03-16T03:03:29.361Z,4.41
2017-03-16T03:04:38.350Z,4.4
2017-03-16T03:05:47.557Z,4.26
2017-03-16T03:06:57.090Z,4.3
2017-03-16T03:08:05.974Z,4.37
2017-03-16T03:09:15.507Z,4.3
2017-03-16T03:10:25.248Z,4.3
2017-03-16T03:11:34.465Z,4.29
2017-03-16T03:12:43.346Z,4.29
2017-03-16T03:13:53.205Z,4.29
2017-03-16T03:15:02.419Z,4.11
2017-03-16T03:16:11.350Z,4.18
2017-03-16T03:17:20.236Z,4.09
2017-03-16T03:18:29.450Z,4.06
2017-03-16T03:19:38.654Z,4.08
2017-03-16T03:20:47.539Z,4.04
2017-03-16T03:21:56.897Z,4.02
2017-03-16T03:23:05.780Z,4.11
2017-03-16T03:24:14.993Z,4.06
2017-03-16T03:25:24.200Z,3.94
2017-03-16T03:26:33.089Z,3.88
2017-03-16T03:27:42.268Z,3.88
2017-03-16T03:28:51.154Z,3.9
2017-03-16T03:30:00.064Z,3.91
2017-03-16T03:31:09.601Z,3.86
2017-03-16T03:32:18.486Z,3.93
2017-03-16T03:33:27.517Z,3.94
2017-03-16T03:34:36.401Z,3.9
2017-03-16T03:35:45.608Z,3.84
2017-03-16T03:36:54.490Z,3.76
2017-03-16T03:38:03.374Z,3.88
2017-03-16T03:39:12.356Z,3.79
2017-03-16T03:40:21.565Z,3.8
2017-03-16T03:41:30.788Z,3.84
2017-03-16T03:42:39.669Z,3.87
2017-03-16T03:43:48.549Z,3.76
2017-03-16T03:44:57.910Z,3.8
2017-03-16T03:46:07.119Z,3.8
2017-03-16T03:47:16.000Z,3.76
2017-03-16T03:48:24.884Z,3.8
2017-03-16T03:49:34.413Z,3.73
2017-03-16T03:50:43.677Z,3.76
2017-03-16T03:51:53.539Z,3.72
2017-03-16T03:53:02.422Z,3.68
2017-03-16T03:54:11.633Z,3.66
2017-03-16T03:55:20.846Z,3.68
2017-03-16T03:56:30.105Z,3.7
2017-03-16T03:57:38.993Z,3.72
2017-03-16T03:58:47.876Z,3.65
2017-03-16T03:59:57.413Z,3.68
2017-03-16T04:01:06.315Z,3.66
2017-03-16T04:02:15.676Z,3.52
2017-03-16T04:03:24.909Z,3.55
2017-03-16T04:04:34.123Z,3.62
2017-03-16T04:05:43.346Z,3.65
2017-03-16T04:06:52.592Z,3.7
2017-03-16T04:08:02.510Z,3.58
2017-03-16T04:09:11.724Z,3.54
2017-03-16T04:10:21.258Z,3.62
2017-03-16T04:11:30.142Z,3.58
2017-03-16T04:12:39.020Z,3.61
2017-03-16T04:13:48.704Z,3.52
2017-03-16T04:14:58.244Z,3.52
2017-03-16T04:16:07.450Z,3.58
2017-03-16T04:17:16.333Z,3.55
2017-03-16T04:18:25.549Z,3.57
2017-03-16T04:19:34.908Z,3.57
2017-03-16T04:20:44.114Z,3.57
2017-03-16T04:21:52.996Z,3.51
2017-03-16T04:23:01.879Z,3.45
2017-03-16T04:24:10.764Z,3.48
2017-03-16T04:25:19.801Z,3.48
2017-03-16T04:26:29.011Z,3.43
2017-03-16T04:27:38.541Z,3.43
2017-03-16T04:28:48.105Z,3.36
2017-03-16T04:29:57.638Z,3.35
2017-03-16T04:31:07.245Z,3.42
2017-03-16T04:32:16.454Z,3.43
2017-03-16T04:33:25.348Z,3.4
2017-03-16T04:34:34.885Z,3.42
2017-03-16T04:35:44.414Z,3.4
2017-03-16T04:36:53.774Z,3.35
2017-03-16T04:38:02.980Z,3.4
2017-03-16T04:39:11.860Z,3.36
2017-03-16T04:40:21.070Z,3.39
2017-03-16T04:41:30.276Z,3.43
2017-03-16T04:42:39.958Z,3.39
2017-03-16T04:43:49.162Z,3.39
2017-03-16T04:44:58.079Z,3.43
2017-03-16T04:46:07.286Z,3.4
2017-03-16T04:47:16.171Z,3.45
2017-03-16T04:48:25.157Z,3.43
2017-03-16T04:49:34.043Z,3.5
2017-03-16T04:50:43.248Z,3.51
2017-03-16T04:51:52.137Z,3.54
2017-03-16T04:53:01.354Z,3.57
2017-03-16T04:54:10.638Z,3.61
2017-03-16T04:55:20.499Z,3.51
2017-03-16T04:56:29.379Z,3.54
2017-03-16T04:57:38.588Z,3.61
2017-03-16T04:58:47.793Z,3.54
2017-03-16T04:59:57.578Z,3.69
2017-03-16T05:01:06.462Z,3.57
2017-03-16T05:02:15.346Z,3.5
2017-03-16T05:03:24.883Z,3.6
2017-03-16T05:04:33.770Z,3.68
2017-03-16T05:05:42.805Z,3.62
2017-03-16T05:06:51.687Z,3.61
2017-03-16T05:08:01.544Z,3.66
2017-03-16T05:09:10.435Z,3.57
2017-03-16T05:10:19.977Z,3.72
2017-03-16T05:11:29.233Z,3.61
2017-03-16T05:12:38.114Z,3.68
2017-03-16T05:13:47.330Z,3.61
2017-03-16T05:14:57.194Z,3.66
2017-03-16T05:16:06.406Z,3.62
2017-03-16T05:17:15.442Z,3.69
2017-03-16T05:18:25.303Z,3.73
2017-03-16T05:19:35.491Z,3.69
2017-03-16T05:20:44.705Z,3.72
2017-03-16T05:21:53.586Z,3.73
2017-03-16T05:23:02.520Z,3.68
2017-03-16T05:24:12.714Z,3.69
2017-03-16T05:25:22.252Z,3.61
2017-03-16T05:26:31.470Z,3.7
2017-03-16T05:27:41.333Z,3.61
2017-03-16T05:28:51.023Z,3.65
2017-03-16T05:30:00.234Z,3.66
2017-03-16T05:31:09.116Z,3.6
2017-03-16T05:32:18.003Z,3.69
2017-03-16T05:33:27.542Z,3.61
2017-03-16T05:34:37.776Z,3.69
2017-03-16T05:35:46.995Z,3.65
2017-03-16T05:36:55.878Z,3.6
2017-03-16T05:38:05.085Z,3.69
2017-03-16T05:39:14.300Z,3.65
2017-03-16T05:40:23.506Z,3.7
2017-03-16T05:41:32.714Z,3.7
2017-03-16T05:42:41.603Z,3.75
2017-03-16T05:43:50.497Z,3.68
2017-03-16T05:45:00.036Z,3.65
2017-03-16T05:46:09.221Z,3.73
2017-03-16T05:47:18.110Z,3.69
2017-03-16T05:48:27.646Z,3.7
2017-03-16T05:49:37.509Z,3.78
2017-03-16T05:50:47.378Z,3.76
2017-03-16T05:51:57.063Z,3.69
2017-03-16T05:53:06.279Z,3.72
2017-03-16T05:54:15.557Z,3.78
2017-03-16T05:55:24.770Z,3.78
2017-03-16T05:56:33.655Z,3.8
2017-03-16T05:57:43.344Z,3.76
2017-03-16T05:58:52.887Z,3.73
2017-03-16T06:00:02.430Z,3.8
2017-03-16T06:01:11.321Z,3.79
2017-03-16T06:02:20.887Z,3.88
2017-03-16T06:03:30.731Z,3.93
2017-03-16T06:04:39.632Z,3.86
2017-03-16T06:05:48.512Z,3.83
2017-03-16T06:06:57.394Z,3.79
2017-03-16T06:08:06.305Z,3.88
2017-03-16T06:10:07.144Z,3.91
2017-03-16T06:11:16.675Z,3.91
2017-03-16T06:12:25.553Z,3.98
2017-03-16T06:13:34.445Z,4.08
2017-03-16T06:14:43.810Z,3.97
2017-03-16T06:15:53.020Z,3.97
2017-03-16T06:17:02.239Z,4.06
2017-03-16T06:18:11.450Z,4.11
2017-03-16T06:19:20.346Z,4.09
2017-03-16T06:20:30.134Z,4.08
2017-03-16T06:21:39.026Z,4.14
2017-03-16T06:22:48.241Z,4.15
2017-03-16T06:23:58.107Z,4.24
2017-03-16T06:25:07.317Z,4.12
2017-03-16T06:26:16.459Z,4.2
2017-03-16T06:27:26.316Z,4.24
2017-03-16T06:28:35.208Z,4.26
2017-03-16T06:29:44.752Z,4.34
2017-03-16T06:30:53.668Z,4.33
2017-03-16T06:32:02.702Z,4.26
2017-03-16T06:33:11.917Z,4.36
2017-03-16T06:34:21.140Z,4.4
2017-03-16T06:35:30.678Z,4.44
2017-03-16T06:36:39.568Z,4.47
2017-03-16T06:37:48.933Z,4.51
2017-03-16T06:38:58.795Z,4.51
2017-03-16T06:40:08.011Z,4.52
2017-03-16T06:41:17.231Z,4.63
2017-03-16T06:42:26.447Z,4.55
2017-03-16T06:43:35.741Z,4.72
2017-03-16T06:44:44.962Z,4.73
2017-03-16T06:45:54.501Z,4.82
2017-03-16T06:47:04.035Z,4.8
2017-03-16T06:48:13.251Z,4.94
2017-03-16T06:49:22.990Z,5
2017-03-16T06:50:32.855Z,4.96
2017-03-16T06:51:41.743Z,5.03
2017-03-16T06:52:50.968Z,5.13
2017-03-16T06:54:00.840Z,5.12
2017-03-16T06:55:10.478Z,5.1
2017-03-16T06:56:19.370Z,5.09
2017-03-16T06:57:28.585Z,5.09
2017-03-16T06:58:38.457Z,5.18
2017-03-16T06:59:48.001Z,5.1
2017-03-16T07:00:58.216Z,5.1
2017-03-16T07:02:07.430Z,5.2
2017-03-16T07:03:16.643Z,5.24
2017-03-16T07:04:26.514Z,5.28
2017-03-16T07:05:36.056Z,5.27
2017-03-16T07:06:45.093Z,5.31
2017-03-16T07:07:54.643Z,5.39
2017-03-16T07:09:04.190Z,5.36
2017-03-16T07:10:14.055Z,5.48
2017-03-16T07:11:22.946Z,5.51
2017-03-16T07:12:32.307Z,5.45
2017-03-16T07:13:41.525Z,5.63
2017-03-16T07:14:51.396Z,5.49
2017-03-16T07:16:00.936Z,5.6
2017-03-16T07:17:09.830Z,5.63
2017-03-16T07:18:19.024Z,5.64
2017-03-16T07:19:28.232Z,5.67
2017-03-16T07:20:37.115Z,5.78
2017-03-16T07:21:46.013Z,5.75
2017-03-16T07:22:55.226Z,5.89
2017-03-16T07:24:04.868Z,5.85
2017-03-16T07:25:13.757Z,5.86
2017-03-16T07:26:22.974Z,5.89
2017-03-16T07:27:32.192Z,5.79
2017-03-16T07:28:41.737Z,5.85
2017-03-16T07:29:51.429Z,5.9
2017-03-16T07:31:00.969Z,5.9
2017-03-16T07:32:10.187Z,5.93
2017-03-16T07:33:20.056Z,5.99
2017-03-16T07:34:29.602Z,6
2017-03-16T07:35:38.692Z,6.08
2017-03-16T07:36:47.583Z,6.09
2017-03-16T07:37:56.793Z,6.09
2017-03-16T07:39:06.013Z,6.06
2017-03-16T07:40:15.234Z,6.08
2017-03-16T07:41:24.699Z,6.12
2017-03-16T07:42:33.588Z,6.15
2017-03-16T07:43:43.137Z,6.08
2017-03-16T07:44:52.677Z,6.21
2017-03-16T07:46:01.566Z,6.25
2017-03-16T07:47:10.926Z,6.12
2017-03-16T07:48:20.134Z,6.18
2017-03-16T07:49:29.693Z,6.21
2017-03-16T07:50:38.905Z,6.33
2017-03-16T07:51:48.118Z,6.33
2017-03-16T07:52:57.336Z,6.38
2017-03-16T07:54:07.529Z,6.43
2017-03-16T07:55:17.393Z,6.44
2017-03-16T07:56:26.604Z,6.52
2017-03-16T07:57:36.144Z,6.54
2017-03-16T07:58:45.794Z,6.49
2017-03-16T07:59:55.662Z,6.61
2017-03-16T08:01:04.880Z,6.62
2017-03-16T08:02:14.095Z,6.7
2017-03-16T08:03:23.317Z,6.64
2017-03-16T08:04:32.784Z,6.76
2017-03-16T08:05:41.687Z,6.77
2017-03-16T08:06:50.897Z,6.84
2017-03-16T08:08:00.764Z,6.95
2017-03-16T08:09:09.986Z,6.94
2017-03-16T08:10:20.104Z,6.89
2017-03-16T08:11:29.319Z,6.92
2017-03-16T08:12:38.210Z,7.02
2017-03-16T08:13:47.103Z,7.02
2017-03-16T08:14:56.994Z,7.12
2017-03-16T08:16:06.702Z,7.16
2017-03-16T08:17:15.583Z,7.24
2017-03-16T08:18:25.119Z,7.27
2017-03-16T08:19:34.349Z,7.31
2017-03-16T08:20:43.560Z,7.46
2017-03-16T08:21:53.351Z,7.32
2017-03-16T08:23:02.894Z,7.46
2017-03-16T08:24:12.433Z,7.57
2017-03-16T08:25:21.645Z,7.5
2017-03-16T08:26:30.861Z,7.57
2017-03-16T08:27:39.897Z,7.57
2017-03-16T08:28:48.793Z,7.63
2017-03-16T08:29:57.680Z,7.63
2017-03-16T08:31:06.570Z,7.85
2017-03-16T08:32:15.791Z,7.85
2017-03-16T08:33:25.052Z,7.85
2017-03-16T08:34:33.935Z,7.89
2017-03-16T08:35:43.158Z,7.89
2017-03-16T08:36:52.375Z,7.86
2017-03-16T08:38:01.267Z,7.95
2017-03-16T08:39:10.406Z,8.02
2017-03-16T08:40:19.292Z,7.98
2017-03-16T08:41:28.506Z,8.07
2017-03-16T08:42:37.395Z,8.07
2017-03-16T08:43:46.281Z,8.2
2017-03-16T08:44:55.519Z,8.23
2017-03-16T08:46:05.059Z,8.19
2017-03-16T08:47:14.274Z,8.26
2017-03-16T08:48:23.494Z,8.23
2017-03-16T08:49:32.711Z,8.33
2017-03-16T08:50:42.075Z,8.38
2017-03-16T08:51:51.300Z,8.38
2017-03-16T08:53:00.836Z,8.41
2017-03-16T08:54:09.720Z,8.48
2017-03-16T08:55:18.934Z,8.56
2017-03-16T08:56:28.396Z,8.56
2017-03-16T08:57:37.283Z,8.61
2017-03-16T08:58:46.171Z,8.59
2017-03-16T08:59:55.057Z,8.65
2017-03-16T09:01:03.953Z,8.65
2017-03-16T09:02:12.991Z,8.62
2017-03-16T09:03:22.200Z,8.66
2017-03-16T09:04:31.091Z,8.79
2017-03-16T09:05:39.980Z,8.87
2017-03-16T09:06:48.868Z,8.95
2017-03-16T09:07:58.144Z,9.08
2017-03-16T09:09:07.033Z,9.15
2017-03-16T09:10:16.252Z,9.11
2017-03-16T09:11:25.143Z,9.23
2017-03-16T09:12:34.032Z,9.2
2017-03-16T09:13:43.222Z,9.23
2017-03-16T09:14:52.438Z,9.29
2017-03-16T09:16:01.337Z,9.33
2017-03-16T09:17:11.202Z,9.31
2017-03-16T09:18:20.098Z,9.32
2017-03-16T09:19:29.937Z,9.4
2017-03-16T09:20:39.150Z,9.42
2017-03-16T09:21:48.367Z,9.58
2017-03-16T09:22:57.584Z,9.53
2017-03-16T09:24:06.476Z,9.66
2017-03-16T09:25:15.517Z,9.71
2017-03-16T09:26:24.407Z,9.71
2017-03-16T09:27:33.304Z,9.71
2017-03-16T09:28:42.513Z,9.79
2017-03-16T09:29:51.412Z,9.93
2017-03-16T09:31:01.013Z,9.99
2017-03-16T09:32:10.236Z,10.02
2017-03-16T09:33:19.125Z,10.05
2017-03-16T09:34:28.014Z,10.14
2017-03-16T09:35:37.232Z,10.15
2017-03-16T09:36:46.372Z,10.25
2017-03-16T09:37:55.296Z,10.27
2017-03-16T09:39:04.187Z,10.3
2017-03-16T09:40:13.403Z,10.38
2017-03-16T09:41:22.296Z,10.3
2017-03-16T09:42:31.662Z,10.4
2017-03-16T09:43:40.878Z,10.44
2017-03-16T09:44:49.802Z,10.55
2017-03-16T09:45:59.021Z,10.53
2017-03-16T09:47:07.916Z,10.67
2017-03-16T09:48:16.956Z,10.61
2017-03-16T09:49:26.169Z,10.67
2017-03-16T09:50:35.067Z,10.74
2017-03-16T09:51:43.960Z,10.85
2017-03-16T09:52:53.176Z,10.85
2017-03-16T09:54:02.321Z,10.86
2017-03-16T09:55:11.217Z,10.86
2017-03-16T09:56:20.433Z,10.86
2017-03-16T09:57:29.321Z,10.88
2017-03-16T09:58:38.219Z,10.91
2017-03-16T09:59:47.260Z,10.91
2017-03-16T10:00:56.493Z,10.91
2017-03-16T10:02:05.709Z,11.04
2017-03-16T10:03:14.938Z,11.07
2017-03-16T10:04:23.828Z,11.04
2017-03-16T10:05:32.766Z,11.17
2017-03-16T10:06:41.980Z,11.21
2017-03-16T10:07:50.867Z,11.22
2017-03-16T10:08:59.757Z,11.17
2017-03-16T10:10:08.649Z,11.25
2017-03-16T10:11:17.915Z,11.29
2017-03-16T10:12:26.805Z,11.29
2017-03-16T10:13:35.726Z,11.29
2017-03-16T10:14:44.943Z,11.25
2017-03-16T10:15:54.156Z,11.36
2017-03-16T10:17:03.151Z,11.42
2017-03-16T10:18:12.366Z,11.37
2017-03-16T10:19:21.576Z,11.37
2017-03-16T10:20:30.789Z,11.43
2017-03-16T10:21:40.656Z,11.42
2017-03-16T10:22:49.794Z,11.54
2017-03-16T10:23:59.008Z,11.55
2017-03-16T10:25:08.226Z,11.51
2017-03-16T10:26:17.217Z,11.55
2017-03-16T10:27:26.452Z,11.67
2017-03-16T10:28:35.835Z,11.75
2017-03-16T10:29:44.727Z,11.78
2017-03-16T10:30:54.277Z,11.69
2017-03-16T10:32:03.169Z,11.76
2017-03-16T10:33:12.063Z,11.9
2017-03-16T10:34:21.526Z,11.8
2017-03-16T10:35:30.414Z,11.75
2017-03-16T10:36:39.971Z,11.75
2017-03-16T10:37:49.511Z,11.9
2017-03-16T10:38:58.402Z,12.02
2017-03-16T10:40:07.614Z,11.94
2017-03-16T10:41:16.506Z,12.01
2017-03-16T10:42:25.721Z,12.05
2017-03-16T10:43:34.936Z,12.04
2017-03-16T10:44:44.479Z,12.13
2017-03-16T10:45:54.321Z,12.17
2017-03-16T10:47:03.211Z,12.1
2017-03-16T10:48:12.107Z,12.05
2017-03-16T10:49:21.649Z,12.19
2017-03-16T10:50:30.536Z,12.23
2017-03-16T10:51:39.427Z,12.38
2017-03-16T10:52:48.644Z,12.42
2017-03-16T10:53:58.193Z,12.37
2017-03-16T10:55:07.087Z,12.39
2017-03-16T10:56:16.310Z,12.45
2017-03-16T10:57:25.879Z,12.52
2017-03-16T10:58:35.096Z,12.47
2017-03-16T10:59:44.313Z,12.54
2017-03-16T11:00:53.539Z,12.57
2017-03-16T11:02:02.755Z,12.7
2017-03-16T11:03:11.994Z,12.82
2017-03-16T11:04:20.884Z,12.85
2017-03-16T11:05:29.777Z,12.92
2017-03-16T11:06:38.670Z,12.96
2017-03-16T11:07:47.558Z,13
2017-03-16T11:08:56.498Z,13
2017-03-16T11:10:05.391Z,12.97
2017-03-16T11:11:14.282Z,13
2017-03-16T11:12:23.176Z,13.04
2017-03-16T11:13:32.069Z,13
2017-03-16T11:14:41.336Z,13.03
2017-03-16T11:15:50.875Z,13
2017-03-16T11:16:59.770Z,13
2017-03-16T11:18:08.662Z,13.03
2017-03-16T11:19:17.562Z,13.1
2017-03-16T11:20:26.607Z,13.19
2017-03-16T11:21:35.499Z,13.19
2017-03-16T11:22:44.397Z,13.14
2017-03-16T11:23:53.612Z,13.32
2017-03-16T11:25:02.505Z,13.32
2017-03-16T11:26:11.873Z,13.42
2017-03-16T11:27:21.092Z,13.49
2017-03-16T11:28:30.346Z,13.44
2017-03-16T11:29:39.564Z,13.66
2017-03-16T11:30:48.458Z,13.73
2017-03-16T11:31:57.928Z,13.75
2017-03-16T11:33:06.821Z,13.52
2017-03-16T11:34:15.710Z,13.51
2017-03-16T11:35:24.928Z,13.42
2017-03-16T11:36:33.820Z,13.38
2017-03-16T11:37:42.967Z,13.51
2017-03-16T11:38:51.857Z,13.48
2017-03-16T11:40:00.750Z,13.48
2017-03-16T11:41:09.646Z,13.49
2017-03-16T11:42:18.540Z,13.42
2017-03-16T11:43:27.433Z,13.44
2017-03-16T11:44:36.327Z,13.52
2017-03-16T11:45:45.219Z,13.52
2017-03-16T11:46:54.111Z,13.55
2017-03-16T11:48:03.005Z,13.63
2017-03-16T11:49:11.948Z,13.71
2017-03-16T11:50:21.161Z,13.92
2017-03-16T11:51:30.055Z,13.79
2017-03-16T11:52:39.045Z,13.78
2017-03-16T11:53:48.010Z,13.85
2017-03-16T11:54:56.902Z,13.96
2017-03-16T11:56:06.125Z,13.96
2017-03-16T11:57:15.062Z,13.92
2017-03-16T11:58:23.968Z,13.91
2017-03-16T11:59:33.222Z,13.95
2017-03-16T12:00:42.151Z,14
2017-03-16T12:01:51.060Z,14
2017-03-16T12:03:00.602Z,14
2017-03-16T12:04:09.494Z,14.02
2017-03-16T12:05:18.728Z,14.09
2017-03-16T12:06:27.873Z,14.12
2017-03-16T12:07:36.766Z,14.15
2017-03-16T12:08:45.987Z,14.29
2017-03-16T12:09:54.897Z,14.45
2017-03-16T12:11:03.788Z,14.55
2017-03-16T12:12:13.260Z,14.58
2017-03-16T12:13:22.480Z,14.77
2017-03-16T12:14:31.378Z,14.75
2017-03-16T12:15:40.292Z,14.83
2017-03-16T12:16:49.513Z,14.83
2017-03-16T12:17:58.950Z,14.72
2017-03-16T12:19:08.498Z,14.81
2017-03-16T12:20:17.394Z,15.09
2017-03-16T12:21:26.657Z,15.25
2017-03-16T12:22:35.573Z,15.25
2017-03-16T12:23:44.824Z,15.43
2017-03-16T12:24:53.727Z,15.43
2017-03-16T12:26:02.626Z,15.21
2017-03-16T12:27:11.525Z,15.27
2017-03-16T12:28:20.779Z,15.29
2017-03-16T12:29:29.925Z,15.43
2017-03-16T12:30:38.839Z,15.59
2017-03-16T12:31:48.388Z,15.46
2017-03-16T12:32:57.289Z,15.32
2017-03-16T12:34:06.198Z,15.41
2017-03-16T12:35:15.201Z,15.56
2017-03-16T12:36:24.103Z,15.53
2017-03-16T12:37:33.011Z,15.54
2017-03-16T12:38:41.941Z,15.6
2017-03-16T12:39:50.862Z,15.76
2017-03-16T12:40:59.824Z,15.82
2017-03-16T12:42:08.740Z,15.74
2017-03-16T12:43:17.667Z,15.56
2017-03-16T12:44:26.928Z,15.65
2017-03-16T12:45:35.841Z,15.57
2017-03-16T12:46:45.720Z,15.39
2017-03-16T12:47:54.624Z,15.36
2017-03-16T12:49:03.529Z,15.49
2017-03-16T12:50:12.429Z,15.56
2017-03-16T12:51:21.372Z,15.83
2017-03-16T12:52:30.510Z,15.87
2017-03-16T12:53:39.436Z,15.97
2017-03-16T12:54:48.339Z,15.86
2017-03-16T12:55:57.565Z,16.04
2017-03-16T12:57:06.793Z,15.93
2017-03-16T12:58:16.078Z,16.09
2017-03-16T12:59:25.312Z,16.12
2017-03-16T13:00:34.225Z,16.3
2017-03-16T13:01:43.467Z,16.39
2017-03-16T13:02:52.379Z,16.48
2017-03-16T13:04:01.741Z,16.48
2017-03-16T13:05:10.694Z,16.48
2017-03-16T13:06:19.921Z,16.46
2017-03-16T13:07:29.172Z,16.5
2017-03-16T13:08:38.732Z,16.57
2017-03-16T13:09:47.783Z,16.7
2017-03-16T13:10:56.685Z,16.63
2017-03-16T13:12:05.916Z,16.5
2017-03-16T13:13:14.824Z,16.38
2017-03-16T13:14:23.731Z,16.24
2017-03-16T13:15:32.891Z,15.96
2017-03-16T13:16:41.818Z,16.17
2017-03-16T13:17:51.054Z,16.21
2017-03-16T13:19:00.285Z,16.42
2017-03-16T13:20:09.512Z,16.53
2017-03-16T13:21:19.220Z,16.7
2017-03-16T13:22:28.129Z,16.73
2017-03-16T13:23:37.098Z,16.66
2017-03-16T13:24:46.735Z,16.75
2017-03-16T13:25:55.968Z,16.71
2017-03-16T13:27:04.869Z,16.58
2017-03-16T13:28:13.770Z,16.5
2017-03-16T13:29:22.673Z,16.58
2017-03-16T13:30:31.902Z,16.66
2017-03-16T13:31:41.466Z,16.52
2017-03-16T13:32:50.844Z,16.58
2017-03-16T13:33:59.757Z,16.56
2017-03-16T13:35:08.707Z,16.56
2017-03-16T13:36:17.904Z,16.61
2017-03-16T13:37:26.809Z,16.73
2017-03-16T13:38:36.184Z,16.85
2017-03-16T13:39:45.088Z,16.89
2017-03-16T13:40:53.994Z,16.83
2017-03-16T13:42:03.223Z,16.6
2017-03-16T13:43:12.129Z,16.46
2017-03-16T13:44:21.235Z,16.6
2017-03-16T13:45:30.458Z,16.67
2017-03-16T13:46:39.360Z,16.68
2017-03-16T13:47:48.261Z,16.86
2017-03-16T13:48:57.159Z,16.89
2017-03-16T13:50:06.910Z,17.01
2017-03-16T13:51:15.816Z,17.06
2017-03-16T13:52:24.714Z,17.15
2017-03-16T13:53:33.615Z,17.08
2017-03-16T13:54:42.518Z,17.19
2017-03-16T13:55:51.999Z,17.21
2017-03-16T13:57:01.224Z,17.01
2017-03-16T13:58:10.452Z,17.08
2017-03-16T13:59:19.681Z,17.31
2017-03-16T14:00:28.910Z,17.36
2017-03-16T14:01:38.516Z,17.44
2017-03-16T14:02:47.427Z,17.56
2017-03-16T14:03:56.330Z,17.55
2017-03-16T14:05:05.241Z,17.77
2017-03-16T14:06:14.152Z,18.02
2017-03-16T14:07:23.218Z,18.26
2017-03-16T14:08:32.121Z,18.32
2017-03-16T14:09:41.354Z,18.32
2017-03-16T14:10:50.591Z,18.29
2017-03-16T14:11:59.822Z,18.29
2017-03-16T14:13:08.880Z,18.39
2017-03-16T14:14:18.118Z,18.41
2017-03-16T14:15:27.350Z,18.55
2017-03-16T14:16:36.587Z,18.52
2017-03-16T14:17:45.824Z,18.58
2017-03-16T14:18:54.980Z,18.47
2017-03-16T14:20:03.891Z,18.23
2017-03-16T14:21:13.139Z,18.33
2017-03-16T14:22:22.373Z,18.48
2017-03-16T14:23:31.279Z,18.54
2017-03-16T14:24:40.663Z,18.66
2017-03-16T14:25:49.899Z,18.6
2017-03-16T14:26:59.134Z,18.55
2017-03-16T14:28:08.052Z,18.62
2017-03-16T14:29:16.962Z,18.52
2017-03-16T14:30:26.349Z,18.58
2017-03-16T14:31:35.262Z,18.76
2017-03-16T14:32:44.173Z,18.87
2017-03-16T14:33:53.082Z,18.99
2017-03-16T14:35:02.316Z,18.76
2017-03-16T14:36:11.476Z,18.6
2017-03-16T14:37:20.713Z,18.44
2017-03-16T14:38:29.623Z,18.48
2017-03-16T14:39:38.856Z,18.5
2017-03-16T14:40:47.769Z,18.51
2017-03-16T14:41:56.880Z,18.51
2017-03-16T14:43:05.787Z,18.7
2017-03-16T14:44:14.697Z,18.52
2017-03-16T14:45:23.928Z,18.6
2017-03-16T14:46:32.836Z,18.62
2017-03-16T14:47:41.956Z,18.42
2017-03-16T14:48:50.867Z,18.25
2017-03-16T14:49:59.774Z,18.27
2017-03-16T14:51:09.012Z,18.54
2017-03-16T14:52:17.921Z,18.66
2017-03-16T14:53:27.402Z,18.52
2017-03-16T14:54:36.717Z,18.58
2017-03-16T14:55:45.630Z,18.54
2017-03-16T14:56:54.862Z,18.44
2017-03-16T14:58:03.769Z,18.3
2017-03-16T14:59:13.153Z,18.32
2017-03-16T15:00:22.066Z,18.2
2017-03-16T15:01:30.974Z,18.3
2017-03-16T15:02:40.208Z,18.29
2017-03-16T15:03:49.114Z,18.29
2017-03-16T15:04:58.495Z,18.32
2017-03-16T15:06:07.400Z,18.25
2017-03-16T15:07:16.356Z,18.21
2017-03-16T15:08:25.259Z,18.05
2017-03-16T15:09:34.165Z,18.15
2017-03-16T15:10:43.797Z,18.17
2017-03-16T15:11:52.703Z,18.18
2017-03-16T15:13:01.931Z,17.99
2017-03-16T15:14:10.838Z,17.87